sensor_id;sensor_type;location;lat;lon;timestamp;temperature;humidity
52555;DHT22;38455;52.710;6.502;2024-02-14T00:02:17;7.20;99.90
52555;DHT22;38455;52.710;6.502;2024-02-14T00:04:43;7.30;99.90
52555;DHT22;38455;52.710;6.502;2024-02-14T00:07:08;7.30;99.90
52555;DHT22;38455;52.710;6.502;2024-02-14T00:09:35;7.30;99.90
52555;DHT22;38455;52.710;6.502;2024-02-14T00:12:00;7.30;99.90
52555;DHT22;38455;52.710;6.502;2024-02-14T00:14:26;7.40;99.90
52555;DHT22;38455;52.710;6.502;2024-02-14T00:16:52;7.40;99.90
52555;DHT22;38455;52.710;6.502;2024-02-14T00:19:17;7.40;99.90
52555;DHT22;38455;52.710;6.502;2024-02-14T00:21:43;7.40;99.90
52555;DHT22;38455;52.710;6.502;2024-02-14T00:24:09;7.40;99.90
52555;DHT22;38455;52.710;6.502;2024-02-14T00:26:34;7.40;99.90
52555;DHT22;38455;52.710;6.502;2024-02-14T00:29:01;7.40;99.90
52555;DHT22;38455;52.710;6.502;2024-02-14T00:31:26;7.40;99.90
52555;DHT22;38455;52.710;6.502;2024-02-14T00:33:52;7.50;99.90
52555;DHT22;38455;52.710;6.502;2024-02-14T00:36:18;7.50;99.90
52555;DHT22;38455;52.710;6.502;2024-02-14T00:38:43;7.50;99.90
52555;DHT22;38455;52.710;6.502;2024-02-14T00:41:11;7.50;99.90
52555;DHT22;38455;52.710;6.502;2024-02-14T00:43:36;7.50;99.90
52555;DHT22;38455;52.710;6.502;2024-02-14T00:46:02;7.60;99.90
52555;DHT22;38455;52.710;6.502;2024-02-14T00:48:28;7.60;99.90
52555;DHT22;38455;52.710;6.502;2024-02-14T00:50:53;7.60;99.90
52555;DHT22;38455;52.710;6.502;2024-02-14T00:53:19;7.60;99.90
52555;DHT22;38455;52.710;6.502;2024-02-14T00:55:46;7.60;99.90
52555;DHT22;38455;52.710;6.502;2024-02-14T00:58:12;7.60;99.90
52555;DHT22;38455;52.710;6.502;2024-02-14T01:00:37;7.70;99.90
52555;DHT22;38455;52.710;6.502;2024-02-14T01:03:03;7.70;99.90
52555;DHT22;38455;52.710;6.502;2024-02-14T01:05:29;7.70;99.90
52555;DHT22;38455;52.710;6.502;2024-02-14T01:07:54;7.70;99.90
52555;DHT22;38455;52.710;6.502;2024-02-14T01:10:20;7.70;99.90
52555;DHT22;38455;52.710;6.502;2024-02-14T01:12:46;7.80;99.90
52555;DHT22;38455;52.710;6.502;2024-02-14T01:15:12;7.80;99.90
52555;DHT22;38455;52.710;6.502;2024-02-14T01:17:37;7.80;99.90
52555;DHT22;38455;52.710;6.502;2024-02-14T01:20:05;7.80;99.90
52555;DHT22;38455;52.710;6.502;2024-02-14T01:22:33;7.80;99.90
52555;DHT22;38455;52.710;6.502;2024-02-14T01:24:58;7.80;99.90
52555;DHT22;38455;52.710;6.502;2024-02-14T01:27:24;7.80;99.90
52555;DHT22;38455;52.710;6.502;2024-02-14T01:29:50;7.90;99.90
52555;DHT22;38455;52.710;6.502;2024-02-14T01:32:16;7.90;99.90
52555;DHT22;38455;52.710;6.502;2024-02-14T01:34:42;7.90;99.90
52555;DHT22;38455;52.710;6.502;2024-02-14T01:37:08;7.90;99.90
52555;DHT22;38455;52.710;6.502;2024-02-14T01:39:35;8.00;99.90
52555;DHT22;38455;52.710;6.502;2024-02-14T01:42:01;8.00;99.90
52555;DHT22;38455;52.710;6.502;2024-02-14T01:44:32;8.00;99.90
52555;DHT22;38455;52.710;6.502;2024-02-14T01:46:58;8.00;99.90
52555;DHT22;38455;52.710;6.502;2024-02-14T01:49:26;8.00;99.90
52555;DHT22;38455;52.710;6.502;2024-02-14T01:52:01;8.00;99.90
52555;DHT22;38455;52.710;6.502;2024-02-14T01:54:27;8.00;99.90
52555;DHT22;38455;52.710;6.502;2024-02-14T01:56:53;8.10;99.90
52555;DHT22;38455;52.710;6.502;2024-02-14T01:59:20;8.00;99.90
52555;DHT22;38455;52.710;6.502;2024-02-14T02:01:46;8.10;99.90
52555;DHT22;38455;52.710;6.502;2024-02-14T02:04:12;8.10;99.90
52555;DHT22;38455;52.710;6.502;2024-02-14T02:06:38;8.10;99.90
52555;DHT22;38455;52.710;6.502;2024-02-14T02:09:06;8.10;99.90
52555;DHT22;38455;52.710;6.502;2024-02-14T02:11:45;8.10;99.90
52555;DHT22;38455;52.710;6.502;2024-02-14T02:14:10;8.20;99.90
52555;DHT22;38455;52.710;6.502;2024-02-14T02:16:37;8.10;99.90
52555;DHT22;38455;52.710;6.502;2024-02-14T02:19:03;8.10;99.90
52555;DHT22;38455;52.710;6.502;2024-02-14T02:21:34;8.20;99.90
52555;DHT22;38455;52.710;6.502;2024-02-14T02:24:01;8.20;99.90
52555;DHT22;38455;52.710;6.502;2024-02-14T02:26:27;8.20;99.90
52555;DHT22;38455;52.710;6.502;2024-02-14T02:28:52;8.20;99.90
52555;DHT22;38455;52.710;6.502;2024-02-14T02:31:19;8.20;99.90
52555;DHT22;38455;52.710;6.502;2024-02-14T02:33:46;8.20;99.90
52555;DHT22;38455;52.710;6.502;2024-02-14T02:36:11;8.20;99.90
52555;DHT22;38455;52.710;6.502;2024-02-14T02:38:37;8.20;99.90
52555;DHT22;38455;52.710;6.502;2024-02-14T02:41:03;8.20;99.90
52555;DHT22;38455;52.710;6.502;2024-02-14T02:43:32;8.20;99.90
52555;DHT22;38455;52.710;6.502;2024-02-14T02:45:58;8.20;99.90
52555;DHT22;38455;52.710;6.502;2024-02-14T02:48:24;8.20;99.90
52555;DHT22;38455;52.710;6.502;2024-02-14T02:50:50;8.30;99.90
52555;DHT22;38455;52.710;6.502;2024-02-14T02:53:16;8.30;99.90
52555;DHT22;38455;52.710;6.502;2024-02-14T02:55:42;8.40;99.90
52555;DHT22;38455;52.710;6.502;2024-02-14T02:58:08;8.40;99.90
52555;DHT22;38455;52.710;6.502;2024-02-14T03:00:34;8.40;99.90
52555;DHT22;38455;52.710;6.502;2024-02-14T03:03:00;8.40;99.90
52555;DHT22;38455;52.710;6.502;2024-02-14T03:05:26;8.40;99.90
52555;DHT22;38455;52.710;6.502;2024-02-14T03:07:52;8.40;99.90
52555;DHT22;38455;52.710;6.502;2024-02-14T03:10:18;8.50;99.90
52555;DHT22;38455;52.710;6.502;2024-02-14T03:12:50;8.50;99.90
52555;DHT22;38455;52.710;6.502;2024-02-14T03:15:16;8.50;99.90
52555;DHT22;38455;52.710;6.502;2024-02-14T03:17:42;8.60;99.90
52555;DHT22;38455;52.710;6.502;2024-02-14T03:20:08;8.60;99.90
52555;DHT22;38455;52.710;6.502;2024-02-14T03:22:39;8.60;99.90
52555;DHT22;38455;52.710;6.502;2024-02-14T03:25:13;8.60;99.90
52555;DHT22;38455;52.710;6.502;2024-02-14T03:27:40;8.70;99.90
52555;DHT22;38455;52.710;6.502;2024-02-14T03:30:06;8.70;99.90
52555;DHT22;38455;52.710;6.502;2024-02-14T03:32:32;8.70;99.90
52555;DHT22;38455;52.710;6.502;2024-02-14T03:34:58;8.70;99.90
52555;DHT22;38455;52.710;6.502;2024-02-14T03:37:26;8.70;99.90
52555;DHT22;38455;52.710;6.502;2024-02-14T03:39:52;8.70;99.90
52555;DHT22;38455;52.710;6.502;2024-02-14T03:42:18;8.80;99.90
52555;DHT22;38455;52.710;6.502;2024-02-14T03:44:45;8.80;99.90
52555;DHT22;38455;52.710;6.502;2024-02-14T03:47:12;8.80;99.90
52555;DHT22;38455;52.710;6.502;2024-02-14T03:49:39;8.80;99.90
52555;DHT22;38455;52.710;6.502;2024-02-14T03:52:06;8.80;99.90
52555;DHT22;38455;52.710;6.502;2024-02-14T03:54:36;8.80;99.90
52555;DHT22;38455;52.710;6.502;2024-02-14T03:57:02;8.80;99.90
52555;DHT22;38455;52.710;6.502;2024-02-14T03:59:30;8.90;99.90
52555;DHT22;38455;52.710;6.502;2024-02-14T04:01:56;8.90;99.90
52555;DHT22;38455;52.710;6.502;2024-02-14T04:04:23;9.00;99.90
52555;DHT22;38455;52.710;6.502;2024-02-14T04:06:49;9.00;99.90
52555;DHT22;38455;52.710;6.502;2024-02-14T04:09:15;9.00;99.90
52555;DHT22;38455;52.710;6.502;2024-02-14T04:11:41;9.00;99.90
52555;DHT22;38455;52.710;6.502;2024-02-14T04:14:06;9.00;99.90
52555;DHT22;38455;52.710;6.502;2024-02-14T04:16:33;9.00;99.90
52555;DHT22;38455;52.710;6.502;2024-02-14T04:18:58;9.00;99.90
52555;DHT22;38455;52.710;6.502;2024-02-14T04:21:24;9.10;99.90
52555;DHT22;38455;52.710;6.502;2024-02-14T04:23:50;9.10;99.90
52555;DHT22;38455;52.710;6.502;2024-02-14T04:26:20;9.10;99.90
52555;DHT22;38455;52.710;6.502;2024-02-14T04:28:46;9.20;99.90
52555;DHT22;38455;52.710;6.502;2024-02-14T04:31:11;9.20;99.90
52555;DHT22;38455;52.710;6.502;2024-02-14T04:33:37;9.20;99.90
52555;DHT22;38455;52.710;6.502;2024-02-14T04:36:03;9.20;99.90
52555;DHT22;38455;52.710;6.502;2024-02-14T04:38:31;9.20;99.90
52555;DHT22;38455;52.710;6.502;2024-02-14T04:40:57;9.20;99.90
52555;DHT22;38455;52.710;6.502;2024-02-14T04:43:25;9.20;99.90
52555;DHT22;38455;52.710;6.502;2024-02-14T04:45:52;9.20;99.90
52555;DHT22;38455;52.710;6.502;2024-02-14T04:48:19;9.30;99.90
52555;DHT22;38455;52.710;6.502;2024-02-14T04:50:45;9.20;99.90
52555;DHT22;38455;52.710;6.502;2024-02-14T04:53:10;9.30;99.90
52555;DHT22;38455;52.710;6.502;2024-02-14T04:55:36;9.30;99.90
52555;DHT22;38455;52.710;6.502;2024-02-14T04:58:02;9.40;99.90
52555;DHT22;38455;52.710;6.502;2024-02-14T05:00:27;9.40;99.90
52555;DHT22;38455;52.710;6.502;2024-02-14T05:02:53;9.40;99.90
52555;DHT22;38455;52.710;6.502;2024-02-14T05:05:19;9.40;99.90
52555;DHT22;38455;52.710;6.502;2024-02-14T05:07:46;9.40;99.90
52555;DHT22;38455;52.710;6.502;2024-02-14T05:10:12;9.40;99.90
52555;DHT22;38455;52.710;6.502;2024-02-14T05:12:39;9.40;99.90
52555;DHT22;38455;52.710;6.502;2024-02-14T05:15:05;9.50;99.90
52555;DHT22;38455;52.710;6.502;2024-02-14T05:17:31;9.50;99.90
52555;DHT22;38455;52.710;6.502;2024-02-14T05:19:56;9.50;99.90
52555;DHT22;38455;52.710;6.502;2024-02-14T05:22:22;9.50;99.90
52555;DHT22;38455;52.710;6.502;2024-02-14T05:24:48;9.50;99.90
52555;DHT22;38455;52.710;6.502;2024-02-14T05:27:14;9.50;99.90
52555;DHT22;38455;52.710;6.502;2024-02-14T05:29:39;9.50;99.90
52555;DHT22;38455;52.710;6.502;2024-02-14T05:32:05;9.60;99.90
52555;DHT22;38455;52.710;6.502;2024-02-14T05:34:31;9.60;99.90
52555;DHT22;38455;52.710;6.502;2024-02-14T05:36:57;9.60;99.90
52555;DHT22;38455;52.710;6.502;2024-02-14T05:39:23;9.60;99.90
52555;DHT22;38455;52.710;6.502;2024-02-14T05:41:48;9.60;99.90
52555;DHT22;38455;52.710;6.502;2024-02-14T05:44:14;9.70;99.90
52555;DHT22;38455;52.710;6.502;2024-02-14T05:46:40;9.70;99.90
52555;DHT22;38455;52.710;6.502;2024-02-14T05:49:06;9.70;99.90
52555;DHT22;38455;52.710;6.502;2024-02-14T05:51:32;9.70;99.90
52555;DHT22;38455;52.710;6.502;2024-02-14T05:53:58;9.70;99.90
52555;DHT22;38455;52.710;6.502;2024-02-14T05:56:24;9.70;99.90
52555;DHT22;38455;52.710;6.502;2024-02-14T05:58:50;9.80;99.90
52555;DHT22;38455;52.710;6.502;2024-02-14T06:01:16;9.80;99.90
52555;DHT22;38455;52.710;6.502;2024-02-14T06:03:42;9.80;99.90
52555;DHT22;38455;52.710;6.502;2024-02-14T06:06:08;9.80;99.90
52555;DHT22;38455;52.710;6.502;2024-02-14T06:08:34;9.80;99.90
52555;DHT22;38455;52.710;6.502;2024-02-14T06:10:59;9.90;99.90
52555;DHT22;38455;52.710;6.502;2024-02-14T06:13:25;9.80;99.90
52555;DHT22;38455;52.710;6.502;2024-02-14T06:15:51;9.90;99.90
52555;DHT22;38455;52.710;6.502;2024-02-14T06:18:16;9.90;99.90
52555;DHT22;38455;52.710;6.502;2024-02-14T06:20:42;9.90;99.90
52555;DHT22;38455;52.710;6.502;2024-02-14T06:23:08;9.90;99.90
52555;DHT22;38455;52.710;6.502;2024-02-14T06:25:33;10.00;99.90
52555;DHT22;38455;52.710;6.502;2024-02-14T06:27:59;9.90;99.90
52555;DHT22;38455;52.710;6.502;2024-02-14T06:30:25;9.90;99.90
52555;DHT22;38455;52.710;6.502;2024-02-14T06:32:50;9.90;99.90
52555;DHT22;38455;52.710;6.502;2024-02-14T06:35:16;10.00;99.90
52555;DHT22;38455;52.710;6.502;2024-02-14T06:37:44;9.90;99.90
52555;DHT22;38455;52.710;6.502;2024-02-14T06:40:10;10.00;99.90
52555;DHT22;38455;52.710;6.502;2024-02-14T06:42:36;10.00;99.90
52555;DHT22;38455;52.710;6.502;2024-02-14T06:45:03;10.00;99.90
52555;DHT22;38455;52.710;6.502;2024-02-14T06:47:28;10.00;99.90
52555;DHT22;38455;52.710;6.502;2024-02-14T06:49:58;10.00;99.90
52555;DHT22;38455;52.710;6.502;2024-02-14T06:52:24;10.00;99.90
52555;DHT22;38455;52.710;6.502;2024-02-14T06:54:50;10.00;99.90
52555;DHT22;38455;52.710;6.502;2024-02-14T06:57:15;10.00;99.90
52555;DHT22;38455;52.710;6.502;2024-02-14T06:59:41;10.00;99.90
52555;DHT22;38455;52.710;6.502;2024-02-14T07:02:07;10.10;99.90
52555;DHT22;38455;52.710;6.502;2024-02-14T07:04:33;10.10;99.90
52555;DHT22;38455;52.710;6.502;2024-02-14T07:06:59;10.10;99.90
52555;DHT22;38455;52.710;6.502;2024-02-14T07:09:26;10.00;99.90
52555;DHT22;38455;52.710;6.502;2024-02-14T07:11:51;10.10;99.90
52555;DHT22;38455;52.710;6.502;2024-02-14T07:14:19;10.10;99.90
52555;DHT22;38455;52.710;6.502;2024-02-14T07:16:45;10.10;99.90
52555;DHT22;38455;52.710;6.502;2024-02-14T07:19:10;10.10;99.90
52555;DHT22;38455;52.710;6.502;2024-02-14T07:21:36;10.10;99.90
52555;DHT22;38455;52.710;6.502;2024-02-14T07:24:04;10.10;99.90
52555;DHT22;38455;52.710;6.502;2024-02-14T07:26:30;10.10;99.90
52555;DHT22;38455;52.710;6.502;2024-02-14T07:28:56;10.20;99.90
52555;DHT22;38455;52.710;6.502;2024-02-14T07:31:22;10.20;99.90
52555;DHT22;38455;52.710;6.502;2024-02-14T07:33:48;10.10;99.90
52555;DHT22;38455;52.710;6.502;2024-02-14T07:36:15;10.20;99.90
52555;DHT22;38455;52.710;6.502;2024-02-14T07:38:42;10.20;99.90
52555;DHT22;38455;52.710;6.502;2024-02-14T07:41:08;10.20;99.90
52555;DHT22;38455;52.710;6.502;2024-02-14T07:43:34;10.20;99.90
52555;DHT22;38455;52.710;6.502;2024-02-14T07:46:00;10.20;99.90
52555;DHT22;38455;52.710;6.502;2024-02-14T07:48:25;10.30;99.90
52555;DHT22;38455;52.710;6.502;2024-02-14T07:50:51;10.30;99.90
52555;DHT22;38455;52.710;6.502;2024-02-14T07:53:17;10.30;99.90
52555;DHT22;38455;52.710;6.502;2024-02-14T07:55:42;10.30;99.90
52555;DHT22;38455;52.710;6.502;2024-02-14T07:58:08;10.30;99.90
52555;DHT22;38455;52.710;6.502;2024-02-14T08:00:34;10.30;99.90
52555;DHT22;38455;52.710;6.502;2024-02-14T08:02:59;10.40;99.90
52555;DHT22;38455;52.710;6.502;2024-02-14T08:05:28;10.40;99.90
52555;DHT22;38455;52.710;6.502;2024-02-14T08:07:54;10.40;99.90
52555;DHT22;38455;52.710;6.502;2024-02-14T08:10:20;10.50;99.90
52555;DHT22;38455;52.710;6.502;2024-02-14T08:12:46;10.50;99.90
52555;DHT22;38455;52.710;6.502;2024-02-14T08:15:12;10.50;99.90
52555;DHT22;38455;52.710;6.502;2024-02-14T08:17:38;10.50;99.90
52555;DHT22;38455;52.710;6.502;2024-02-14T08:20:05;10.50;99.90
52555;DHT22;38455;52.710;6.502;2024-02-14T08:22:30;10.50;99.90
52555;DHT22;38455;52.710;6.502;2024-02-14T08:24:57;10.50;99.90
52555;DHT22;38455;52.710;6.502;2024-02-14T08:27:23;10.50;99.90
52555;DHT22;38455;52.710;6.502;2024-02-14T08:29:48;10.50;99.90
52555;DHT22;38455;52.710;6.502;2024-02-14T08:32:14;10.50;99.90
52555;DHT22;38455;52.710;6.502;2024-02-14T08:34:40;10.60;99.90
52555;DHT22;38455;52.710;6.502;2024-02-14T08:37:05;10.50;99.90
52555;DHT22;38455;52.710;6.502;2024-02-14T08:39:32;10.60;99.90
52555;DHT22;38455;52.710;6.502;2024-02-14T08:41:57;10.60;99.90
52555;DHT22;38455;52.710;6.502;2024-02-14T08:44:23;10.60;99.90
52555;DHT22;38455;52.710;6.502;2024-02-14T08:46:50;10.60;99.90
52555;DHT22;38455;52.710;6.502;2024-02-14T08:49:15;10.60;99.90
52555;DHT22;38455;52.710;6.502;2024-02-14T08:51:41;10.60;99.90
52555;DHT22;38455;52.710;6.502;2024-02-14T08:54:09;10.70;99.90
52555;DHT22;38455;52.710;6.502;2024-02-14T08:56:35;10.70;99.90
52555;DHT22;38455;52.710;6.502;2024-02-14T08:59:02;10.60;99.90
52555;DHT22;38455;52.710;6.502;2024-02-14T09:01:29;10.60;99.90
52555;DHT22;38455;52.710;6.502;2024-02-14T09:03:55;10.70;99.90
52555;DHT22;38455;52.710;6.502;2024-02-14T09:06:21;10.70;99.90
52555;DHT22;38455;52.710;6.502;2024-02-14T09:08:47;10.60;99.90
52555;DHT22;38455;52.710;6.502;2024-02-14T09:11:13;10.60;99.90
52555;DHT22;38455;52.710;6.502;2024-02-14T09:13:39;10.60;99.90
52555;DHT22;38455;52.710;6.502;2024-02-14T09:16:10;10.60;99.90
52555;DHT22;38455;52.710;6.502;2024-02-14T09:18:37;10.70;99.90
52555;DHT22;38455;52.710;6.502;2024-02-14T09:21:03;10.70;99.90
52555;DHT22;38455;52.710;6.502;2024-02-14T09:23:31;10.70;99.90
52555;DHT22;38455;52.710;6.502;2024-02-14T09:25:58;10.70;99.90
52555;DHT22;38455;52.710;6.502;2024-02-14T09:28:24;10.70;99.90
52555;DHT22;38455;52.710;6.502;2024-02-14T09:30:51;10.80;99.90
52555;DHT22;38455;52.710;6.502;2024-02-14T09:33:16;10.70;99.90
52555;DHT22;38455;52.710;6.502;2024-02-14T09:35:42;10.80;99.90
52555;DHT22;38455;52.710;6.502;2024-02-14T09:38:11;10.70;99.90
52555;DHT22;38455;52.710;6.502;2024-02-14T09:40:41;10.70;99.90
52555;DHT22;38455;52.710;6.502;2024-02-14T09:43:18;10.80;99.90
52555;DHT22;38455;52.710;6.502;2024-02-14T09:45:50;10.80;99.90
52555;DHT22;38455;52.710;6.502;2024-02-14T09:48:17;10.90;99.90
52555;DHT22;38455;52.710;6.502;2024-02-14T09:50:45;10.90;99.90
52555;DHT22;38455;52.710;6.502;2024-02-14T09:53:12;11.00;99.90
52555;DHT22;38455;52.710;6.502;2024-02-14T09:55:38;10.90;99.90
52555;DHT22;38455;52.710;6.502;2024-02-14T09:58:05;11.00;99.90
52555;DHT22;38455;52.710;6.502;2024-02-14T10:00:35;11.00;99.90
52555;DHT22;38455;52.710;6.502;2024-02-14T10:03:04;11.00;99.90
52555;DHT22;38455;52.710;6.502;2024-02-14T10:05:31;11.10;99.90
52555;DHT22;38455;52.710;6.502;2024-02-14T10:07:57;11.10;99.90
52555;DHT22;38455;52.710;6.502;2024-02-14T10:10:27;11.10;99.90
52555;DHT22;38455;52.710;6.502;2024-02-14T10:12:54;11.10;99.90
52555;DHT22;38455;52.710;6.502;2024-02-14T10:15:22;11.20;99.90
52555;DHT22;38455;52.710;6.502;2024-02-14T10:17:47;11.20;99.90
52555;DHT22;38455;52.710;6.502;2024-02-14T10:20:17;11.10;99.90
52555;DHT22;38455;52.710;6.502;2024-02-14T10:22:43;11.10;99.90
52555;DHT22;38455;52.710;6.502;2024-02-14T10:25:10;11.10;99.90
52555;DHT22;38455;52.710;6.502;2024-02-14T10:27:39;11.10;99.90
52555;DHT22;38455;52.710;6.502;2024-02-14T10:30:09;11.10;99.90
52555;DHT22;38455;52.710;6.502;2024-02-14T10:32:41;11.10;99.90
52555;DHT22;38455;52.710;6.502;2024-02-14T10:35:13;11.10;99.90
52555;DHT22;38455;52.710;6.502;2024-02-14T10:37:39;11.10;99.90
52555;DHT22;38455;52.710;6.502;2024-02-14T10:40:05;11.10;99.90
52555;DHT22;38455;52.710;6.502;2024-02-14T10:42:32;11.10;99.90
52555;DHT22;38455;52.710;6.502;2024-02-14T10:45:02;11.10;99.90
52555;DHT22;38455;52.710;6.502;2024-02-14T10:47:35;11.20;99.90
52555;DHT22;38455;52.710;6.502;2024-02-14T10:50:06;11.20;99.90
52555;DHT22;38455;52.710;6.502;2024-02-14T10:52:34;11.20;99.90
52555;DHT22;38455;52.710;6.502;2024-02-14T10:55:05;11.20;99.90
52555;DHT22;38455;52.710;6.502;2024-02-14T10:57:31;11.20;99.90
52555;DHT22;38455;52.710;6.502;2024-02-14T11:00:03;11.20;99.90
52555;DHT22;38455;52.710;6.502;2024-02-14T11:02:30;11.30;99.90
52555;DHT22;38455;52.710;6.502;2024-02-14T11:04:58;11.20;99.90
52555;DHT22;38455;52.710;6.502;2024-02-14T11:07:24;11.30;99.90
52555;DHT22;38455;52.710;6.502;2024-02-14T11:10:05;11.30;99.90
52555;DHT22;38455;52.710;6.502;2024-02-14T11:12:36;11.30;99.90
52555;DHT22;38455;52.710;6.502;2024-02-14T11:15:19;11.30;99.90
52555;DHT22;38455;52.710;6.502;2024-02-14T11:17:45;11.40;99.90
52555;DHT22;38455;52.710;6.502;2024-02-14T11:20:15;11.40;99.90
52555;DHT22;38455;52.710;6.502;2024-02-14T11:22:54;11.40;99.90
52555;DHT22;38455;52.710;6.502;2024-02-14T11:25:39;11.50;99.90
52555;DHT22;38455;52.710;6.502;2024-02-14T11:28:18;11.60;99.90
52555;DHT22;38455;52.710;6.502;2024-02-14T11:30:47;11.60;99.90
52555;DHT22;38455;52.710;6.502;2024-02-14T11:33:24;11.60;99.90
52555;DHT22;38455;52.710;6.502;2024-02-14T11:35:51;11.60;99.90
52555;DHT22;38455;52.710;6.502;2024-02-14T11:38:22;11.60;99.90
52555;DHT22;38455;52.710;6.502;2024-02-14T11:40:49;11.70;99.90
52555;DHT22;38455;52.710;6.502;2024-02-14T11:43:19;11.70;99.90
52555;DHT22;38455;52.710;6.502;2024-02-14T11:45:48;11.70;99.90
52555;DHT22;38455;52.710;6.502;2024-02-14T11:48:18;11.80;99.90
52555;DHT22;38455;52.710;6.502;2024-02-14T11:50:49;11.80;99.90
52555;DHT22;38455;52.710;6.502;2024-02-14T11:53:17;11.80;99.90
52555;DHT22;38455;52.710;6.502;2024-02-14T11:55:45;11.80;99.90
52555;DHT22;38455;52.710;6.502;2024-02-14T11:58:15;11.80;99.90
52555;DHT22;38455;52.710;6.502;2024-02-14T12:00:46;11.80;99.90
52555;DHT22;38455;52.710;6.502;2024-02-14T12:03:14;11.80;99.90
52555;DHT22;38455;52.710;6.502;2024-02-14T12:05:41;11.80;99.90
52555;DHT22;38455;52.710;6.502;2024-02-14T12:08:09;11.80;99.90
52555;DHT22;38455;52.710;6.502;2024-02-14T12:10:36;11.80;99.90
52555;DHT22;38455;52.710;6.502;2024-02-14T12:13:10;11.80;99.90
52555;DHT22;38455;52.710;6.502;2024-02-14T12:15:41;11.80;99.90
52555;DHT22;38455;52.710;6.502;2024-02-14T12:18:08;11.80;99.90
52555;DHT22;38455;52.710;6.502;2024-02-14T12:20:35;11.80;99.90
52555;DHT22;38455;52.710;6.502;2024-02-14T12:23:02;11.80;99.90
52555;DHT22;38455;52.710;6.502;2024-02-14T12:25:29;11.80;99.90
52555;DHT22;38455;52.710;6.502;2024-02-14T12:27:58;11.70;99.90
52555;DHT22;38455;52.710;6.502;2024-02-14T12:30:46;11.70;99.90
52555;DHT22;38455;52.710;6.502;2024-02-14T12:33:14;11.70;99.90
52555;DHT22;38455;52.710;6.502;2024-02-14T12:35:47;11.70;99.90
52555;DHT22;38455;52.710;6.502;2024-02-14T12:38:14;11.70;99.90
52555;DHT22;38455;52.710;6.502;2024-02-14T12:40:41;11.70;99.90
52555;DHT22;38455;52.710;6.502;2024-02-14T12:43:10;11.80;99.90
52555;DHT22;38455;52.710;6.502;2024-02-14T12:45:37;11.80;99.90
52555;DHT22;38455;52.710;6.502;2024-02-14T12:48:04;11.80;99.90
52555;DHT22;38455;52.710;6.502;2024-02-14T12:50:31;11.80;99.90
52555;DHT22;38455;52.710;6.502;2024-02-14T12:52:57;11.80;99.90
52555;DHT22;38455;52.710;6.502;2024-02-14T12:55:22;11.80;99.90
52555;DHT22;38455;52.710;6.502;2024-02-14T12:57:51;11.80;99.90
52555;DHT22;38455;52.710;6.502;2024-02-14T13:00:17;11.70;99.90
52555;DHT22;38455;52.710;6.502;2024-02-14T13:02:43;11.80;99.90
52555;DHT22;38455;52.710;6.502;2024-02-14T13:05:09;11.80;99.90
52555;DHT22;38455;52.710;6.502;2024-02-14T13:07:35;11.80;99.90
52555;DHT22;38455;52.710;6.502;2024-02-14T13:10:01;11.80;99.90
52555;DHT22;38455;52.710;6.502;2024-02-14T13:12:28;11.70;99.90
52555;DHT22;38455;52.710;6.502;2024-02-14T13:14:54;11.80;99.90
52555;DHT22;38455;52.710;6.502;2024-02-14T13:17:20;11.80;99.90
52555;DHT22;38455;52.710;6.502;2024-02-14T13:19:46;11.80;99.90
52555;DHT22;38455;52.710;6.502;2024-02-14T13:22:13;11.70;99.90
52555;DHT22;38455;52.710;6.502;2024-02-14T13:24:39;11.70;99.90
52555;DHT22;38455;52.710;6.502;2024-02-14T13:27:05;11.80;99.90
52555;DHT22;38455;52.710;6.502;2024-02-14T13:29:31;11.80;99.90
52555;DHT22;38455;52.710;6.502;2024-02-14T13:31:57;11.80;99.90
52555;DHT22;38455;52.710;6.502;2024-02-14T13:34:22;11.80;99.90
52555;DHT22;38455;52.710;6.502;2024-02-14T13:36:48;11.80;99.90
52555;DHT22;38455;52.710;6.502;2024-02-14T13:39:14;11.80;99.90
52555;DHT22;38455;52.710;6.502;2024-02-14T13:41:40;11.70;99.90
52555;DHT22;38455;52.710;6.502;2024-02-14T13:44:08;11.70;99.90
52555;DHT22;38455;52.710;6.502;2024-02-14T13:46:35;11.80;99.90
52555;DHT22;38455;52.710;6.502;2024-02-14T13:49:01;11.70;99.90
52555;DHT22;38455;52.710;6.502;2024-02-14T13:51:27;11.70;99.90
52555;DHT22;38455;52.710;6.502;2024-02-14T13:53:53;11.80;99.90
52555;DHT22;38455;52.710;6.502;2024-02-14T13:56:19;11.80;99.90
52555;DHT22;38455;52.710;6.502;2024-02-14T13:58:48;11.80;99.90
52555;DHT22;38455;52.710;6.502;2024-02-14T14:01:15;11.80;99.90
52555;DHT22;38455;52.710;6.502;2024-02-14T14:03:40;11.80;99.90
52555;DHT22;38455;52.710;6.502;2024-02-14T14:06:07;11.80;99.90
52555;DHT22;38455;52.710;6.502;2024-02-14T14:08:34;11.80;99.90
52555;DHT22;38455;52.710;6.502;2024-02-14T14:11:02;11.70;99.90
52555;DHT22;38455;52.710;6.502;2024-02-14T14:13:29;11.80;99.90
52555;DHT22;38455;52.710;6.502;2024-02-14T14:15:57;11.70;99.90
52555;DHT22;38455;52.710;6.502;2024-02-14T14:18:23;11.80;99.90
52555;DHT22;38455;52.710;6.502;2024-02-14T14:20:51;11.70;99.90
52555;DHT22;38455;52.710;6.502;2024-02-14T14:23:20;11.70;99.90
52555;DHT22;38455;52.710;6.502;2024-02-14T14:25:45;11.70;99.90
52555;DHT22;38455;52.710;6.502;2024-02-14T14:28:11;11.70;99.90
52555;DHT22;38455;52.710;6.502;2024-02-14T14:30:37;11.60;99.90
52555;DHT22;38455;52.710;6.502;2024-02-14T14:33:04;11.70;99.90
52555;DHT22;38455;52.710;6.502;2024-02-14T14:35:30;11.70;99.90
52555;DHT22;38455;52.710;6.502;2024-02-14T14:38:07;11.70;99.90
52555;DHT22;38455;52.710;6.502;2024-02-14T14:40:34;11.70;99.90
52555;DHT22;38455;52.710;6.502;2024-02-14T14:42:59;11.70;99.90
52555;DHT22;38455;52.710;6.502;2024-02-14T14:45:26;11.70;99.90
52555;DHT22;38455;52.710;6.502;2024-02-14T14:47:53;11.60;99.90
52555;DHT22;38455;52.710;6.502;2024-02-14T14:50:19;11.70;99.90
52555;DHT22;38455;52.710;6.502;2024-02-14T14:52:45;11.70;99.90
52555;DHT22;38455;52.710;6.502;2024-02-14T14:55:11;11.80;99.90
52555;DHT22;38455;52.710;6.502;2024-02-14T14:57:37;11.80;99.90
52555;DHT22;38455;52.710;6.502;2024-02-14T15:00:12;11.80;99.90
52555;DHT22;38455;52.710;6.502;2024-02-14T15:02:42;11.80;99.90
52555;DHT22;38455;52.710;6.502;2024-02-14T15:05:11;11.90;99.90
52555;DHT22;38455;52.710;6.502;2024-02-14T15:07:40;11.80;99.90
52555;DHT22;38455;52.710;6.502;2024-02-14T15:10:07;11.80;99.90
52555;DHT22;38455;52.710;6.502;2024-02-14T15:12:36;11.80;99.90
52555;DHT22;38455;52.710;6.502;2024-02-14T15:15:05;11.80;99.90
52555;DHT22;38455;52.710;6.502;2024-02-14T15:17:31;11.80;99.90
52555;DHT22;38455;52.710;6.502;2024-02-14T15:19:57;11.80;99.90
52555;DHT22;38455;52.710;6.502;2024-02-14T15:22:23;11.80;99.90
52555;DHT22;38455;52.710;6.502;2024-02-14T15:24:54;11.80;99.90
52555;DHT22;38455;52.710;6.502;2024-02-14T15:27:20;11.80;99.90
52555;DHT22;38455;52.710;6.502;2024-02-14T15:29:52;11.80;99.90
52555;DHT22;38455;52.710;6.502;2024-02-14T15:32:36;11.80;99.90
52555;DHT22;38455;52.710;6.502;2024-02-14T15:35:20;11.80;99.90
52555;DHT22;38455;52.710;6.502;2024-02-14T15:37:46;11.80;99.90